Time;durP1;ratioP1;P1;durP2;ratioP2;P2;SDS_P1;SDS_P2;PMS_P1;PMS_P2;Temp;Humidity;BMP_temperature;BMP_pressure;BME280_temperature;BME280_humidity;BME280_pressure;Samples;Min_cycle;Max_cycle;Signal;HPM_P1;HPM_P2
2022/06/20 00:00:58;;;;;;;2.42;2.22;;;;;;;20.70;52.14;99605.06;5012739;28;20101;-85
2022/06/20 00:03:28;;;;;;;2.88;2.40;;;;;;;20.63;51.85;99567.66;5013814;28;20018;-85
2022/06/20 00:05:53;;;;;;;2.72;2.53;;;;;;;20.76;52.25;99585.31;5013614;28;20442;-85
2022/06/20 00:08:19;;;;;;;3.08;2.40;;;;;;;19.70;52.09;99437.56;5014922;28;20026;-85
2022/06/20 00:10:45;;;;;;;2.38;2.25;;;;;;;20.22;52.15;99521.34;5014818;28;20029;-85
2022/06/20 00:13:19;;;;;;;3.03;2.83;;;;;;;20.26;52.05;99519.81;5013584;28;20021;-85
2022/06/20 00:15:46;;;;;;;6.82;2.60;;;;;;;20.06;52.01;99523.97;5014959;28;20022;-85
2022/06/20 00:18:12;;;;;;;2.90;2.70;;;;;;;20.36;52.07;99537.94;5014923;28;20048;-85
2022/06/20 00:20:37;;;;;;;3.95;2.67;;;;;;;20.14;52.11;99521.75;5014775;28;20483;-85
2022/06/20 00:23:03;;;;;;;2.67;2.47;;;;;;;19.78;52.36;99458.63;5014555;28;20028;-85
2022/06/20 00:25:30;;;;;;;5.25;2.85;;;;;;;20.49;52.39;99598.53;5014410;28;20578;-85
2022/06/20 00:27:55;;;;;;;3.15;2.60;;;;;;;20.25;52.36;99554.91;5013192;28;20083;-85
2022/06/20 00:30:22;;;;;;;3.15;2.63;;;;;;;20.33;52.27;99556.38;5013033;28;20096;-85
2022/06/20 00:32:48;;;;;;;2.65;2.45;;;;;;;20.17;52.49;99564.16;5014592;28;20574;-84
2022/06/20 00:35:15;;;;;;;2.70;2.50;;;;;;;20.21;52.28;99543.03;5013336;28;20048;-85
2022/06/20 00:37:41;;;;;;;2.97;2.67;;;;;;;20.15;52.40;99544.81;5013500;28;20030;-85
2022/06/20 00:40:23;;;;;;;2.78;2.58;;;;;;;20.20;52.38;99539.53;5014543;28;20037;-85
2022/06/20 00:42:50;;;;;;;2.72;2.47;;;;;;;19.94;52.40;99487.31;5013165;28;20099;-85
2022/06/20 00:45:17;;;;;;;2.75;2.55;;;;;;;20.00;52.28;99518.53;5014421;28;20036;-85
2022/06/20 00:47:45;;;;;;;4.25;2.75;;;;;;;20.11;52.93;99529.47;5014275;28;20022;-85
2022/06/20 00:50:26;;;;;;;4.50;3.33;;;;;;;19.99;52.51;99535.66;5013003;28;20514;-85
2022/06/20 00:52:58;;;;;;;2.95;2.72;;;;;;;20.04;52.79;99542.97;5012775;28;20495;-85
2022/06/20 00:55:33;;;;;;;4.63;2.97;;;;;;;19.54;52.55;99457.09;5014052;28;20402;-85
2022/06/20 00:58:19;;;;;;;3.22;2.92;;;;;;;20.11;53.03;99562.44;5014268;28;20477;-85
2022/06/20 01:00:44;;;;;;;3.38;2.67;;;;;;;19.87;53.03;99539.44;5006718;28;20495;-85
2022/06/20 01:03:26;;;;;;;2.58;2.47;;;;;;;19.39;53.01;99472.81;5012699;28;20116;-85
2022/06/20 01:05:58;;;;;;;4.15;2.95;;;;;;;19.99;52.88;99558.97;5029078;28;20054;-85
2022/06/20 01:08:34;;;;;;;3.78;2.65;;;;;;;19.88;53.02;99555.25;5013965;28;20495;-85
2022/06/20 01:11:04;;;;;;;3.25;3.05;;;;;;;19.37;53.22;99470.38;5012620;28;20033;-85
2022/06/20 01:13:30;;;;;;;3.05;2.85;;;;;;;19.84;53.44;99547.94;5011645;28;20447;-85
2022/06/20 01:16:00;;;;;;;3.20;2.88;;;;;;;19.78;53.41;99559.63;5013607;28;20032;-85
2022/06/20 01:18:33;;;;;;;4.38;3.17;;;;;;;19.68;53.27;99538.78;5012377;28;20483;-85
2022/06/20 01:21:01;;;;;;;3.22;2.92;;;;;;;19.67;53.26;99523.78;5013799;28;20113;-85
2022/06/20 01:23:32;;;;;;;4.00;2.70;;;;;;;19.80;53.47;99549.47;5012440;28;20022;-85
2022/06/20 01:26:17;;;;;;;;;;;;;;;19.53;54.16;99552.69;5014009;28;20467;-85
2022/06/20 01:28:46;;;;;;;2.90;2.55;;;;;;;19.22;53.80;99480.75;5028665;28;19909;-85
2022/06/20 01:31:14;;;;;;;4.55;3.50;;;;;;;19.60;53.54;99531.94;5012057;28;20030;-85
2022/06/20 01:33:40;;;;;;;3.92;2.67;;;;;;;19.25;53.39;99499.00;5013339;28;20538;-85
2022/06/20 01:38:50;;;;;;;4.38;3.22;;;;;;;19.61;53.56;99559.53;5012937;28;20091;-85
2022/06/20 01:44:03;;;;;;;3.35;3.05;;;;;;;19.48;53.70;99544.50;5013589;28;20029;-85
2022/06/20 01:46:31;;;;;;;4.65;3.10;;;;;;;18.97;53.79;99467.63;5013222;28;20030;-84
2022/06/20 01:49:07;;;;;;;3.50;3.30;;;;;;;19.36;54.04;99539.19;5011762;28;20391;-84
2022/06/20 01:51:39;;;;;;;3.97;3.00;;;;;;;19.26;54.26;99538.13;5013027;28;20092;-84
2022/06/20 01:54:04;;;;;;;3.20;2.90;;;;;;;18.71;54.25;99455.56;5011788;28;20046;-84
2022/06/20 01:56:30;;;;;;;3.35;3.03;;;;;;;19.27;54.26;99566.50;5013150;28;20084;-84
2022/06/20 01:59:04;;;;;;;3.33;2.85;;;;;;;19.22;54.38;99536.97;5011831;28;20029;-84
2022/06/20 02:01:33;;;;;;;3.47;2.97;;;;;;;19.23;54.38;99536.72;5011530;28;20061;-85
2022/06/20 02:04:01;;;;;;;3.65;3.33;;;;;;;18.74;54.13;99463.13;5011243;28;20018;-85
2022/06/20 02:06:29;;;;;;;3.42;3.13;;;;;;;18.82;54.33;99488.69;5011335;28;20017;-85
2022/06/20 02:08:57;;;;;;;3.30;3.00;;;;;;;18.45;54.41;99443.41;5012819;28;20022;-84
2022/06/20 02:11:32;;;;;;;3.40;3.10;;;;;;;19.05;54.58;99534.19;5011528;28;20028;-84
2022/06/20 02:14:09;;;;;;;3.10;2.80;;;;;;;19.00;54.91;99529.53;5012674;28;20026;-84
2022/06/20 02:16:38;;;;;;;5.53;3.35;;;;;;;18.39;54.65;99430.97;5011459;28;20029;-84
2022/06/20 02:19:07;;;;;;;4.15;3.10;;;;;;;18.51;54.85;99452.34;5011193;28;20467;-84
2022/06/20 02:21:36;;;;;;;3.50;3.20;;;;;;;18.70;54.92;99478.81;5011332;28;20478;-84
2022/06/20 02:24:15;;;;;;;4.18;3.33;;;;;;;18.46;54.99;99442.34;5012379;28;20113;-85
2022/06/20 02:26:45;;;;;;;4.50;3.20;;;;;;;18.49;54.96;99454.44;5011112;28;20104;-85
2022/06/20 02:29:21;;;;;;;4.78;3.53;;;;;;;18.91;55.06;99528.25;5011170;28;20044;-86
2022/06/20 02:31:50;;;;;;;3.88;2.97;;;;;;;18.39;54.97;99437.13;5011121;28;20032;-85
2022/06/20 02:34:16;;;;;;;5.72;3.33;;;;;;;18.51;54.94;99453.16;5012210;28;20481;-86
2022/06/20 02:36:42;;;;;;;3.65;3.38;;;;;;;18.65;54.70;99485.91;5012156;28;20028;-86
2022/06/20 02:39:08;;;;;;;4.20;3.40;;;;;;;18.32;54.79;99412.34;5012098;28;20088;-85
2022/06/20 02:41:34;;;;;;;5.00;3.40;;;;;;;18.43;54.73;99448.97;5010859;28;20033;-84
2022/06/20 02:44:07;;;;;;;5.40;3.65;;;;;;;18.75;54.71;99478.13;5012179;28;20029;-84
2022/06/20 02:46:33;;;;;;;4.22;3.33;;;;;;;18.64;54.83;99469.03;5010844;28;20061;-85
2022/06/20 02:49:03;;;;;;;6.20;3.40;;;;;;;18.33;54.86;99421.19;5011963;28;20104;-84
2022/06/20 02:51:40;;;;;;;4.40;3.55;;;;;;;18.81;54.93;99495.09;5010625;28;20088;-84
2022/06/20 02:54:10;;;;;;;4.85;3.67;;;;;;;18.86;55.18;99514.75;5011868;28;20458;-84
2022/06/20 02:56:49;;;;;;;4.55;3.60;;;;;;;18.88;55.08;99517.19;5011867;28;20058;-84
2022/06/20 02:59:22;;;;;;;4.30;3.90;;;;;;;18.87;55.12;99515.56;5027450;28;20025;-83
2022/06/20 03:02:04;;;;;;;4.97;3.97;;;;;;;18.86;55.23;99519.28;5011868;28;20030;-84
2022/06/20 03:04:33;;;;;;;4.32;3.42;;;;;;;18.67;55.34;99498.00;5010624;28;20050;-84
2022/06/20 03:07:03;;;;;;;4.38;3.60;;;;;;;18.54;55.34;99479.44;5012024;28;20037;-84
2022/06/20 03:09:32;;;;;;;5.95;3.95;;;;;;;18.81;55.27;99511.97;5011855;28;20088;-86
2022/06/20 03:12:01;;;;;;;5.35;4.00;;;;;;;18.58;55.31;99490.50;5011989;28;20089;-85
2022/06/20 03:14:55;;;;;;;4.53;3.70;;;;;;;18.76;55.65;99530.56;5026853;28;20033;-86
2022/06/20 03:17:22;;;;;;;8.95;3.70;;;;;;;18.30;55.15;99435.03;5010402;28;20108;-86
2022/06/20 03:19:54;;;;;;;4.95;3.38;;;;;;;18.61;55.07;99487.38;5010624;28;20034;-85
2022/06/20 03:22:23;;;;;;;4.57;3.40;;;;;;;18.91;54.97;99520.22;5011783;28;20466;-86
2022/06/20 03:24:51;;;;;;;4.78;3.83;;;;;;;18.94;54.84;99524.28;5011940;28;20026;-85
2022/06/20 03:27:36;;;;;;;5.68;3.58;;;;;;;18.95;55.00;99528.59;5010486;28;20033;-86
2022/06/20 03:30:41;;;;;;;4.70;3.88;;;;;;;18.82;54.73;99489.50;5011536;28;20026;-85
2022/06/20 03:33:13;;;;;;;4.53;3.50;;;;;;;18.99;54.71;99517.19;5011185;28;20538;-86
2022/06/20 03:35:44;;;;;;;3.72;3.40;;;;;;;18.76;54.67;99487.78;5011722;28;20041;-85
2022/06/20 03:38:13;;;;;;;3.78;3.47;;;;;;;19.01;54.74;99517.78;5015975;28;20034;-85
2022/06/20 03:40:39;;;;;;;3.70;3.40;;;;;;;18.50;54.52;99430.16;5015533;28;20491;-85
2022/06/20 03:43:06;;;;;;;4.63;3.35;;;;;;;18.99;54.62;99517.19;5015571;28;20041;-85
2022/06/20 03:45:35;;;;;;;5.72;4.05;;;;;;;18.48;54.55;99421.53;5015595;28;20022;-86
2022/06/20 03:48:08;;;;;;;4.28;3.88;;;;;;;18.58;54.63;99439.69;5014220;28;20029;-85
2022/06/20 03:50:55;;;;;;;4.45;4.00;;;;;;;18.86;54.40;99477.31;5015544;28;20030;-85
2022/06/20 03:53:44;;;;;;;7.68;4.03;;;;;;;19.19;54.67;99522.19;5014007;28;20068;-85
2022/06/20 03:56:20;;;;;;;6.22;3.78;;;;;;;18.59;54.43;99426.09;5015543;28;20037;-86
2022/06/20 03:59:01;;;;;;;4.80;4.05;;;;;;;19.34;54.32;99519.84;5014210;28;20474;-86
2022/06/20 04:01:45;;;;;;;4.72;3.95;;;;;;;18.78;54.31;99426.81;5015220;28;20030;-86
2022/06/20 04:04:54;;;;;;;4.30;3.90;;;;;;;19.18;54.66;99471.56;5014814;28;20129;-85
2022/06/20 04:07:34;;;;;;;6.60;5.10;;;;;;;19.50;54.09;99502.25;4981646;28;20045;-85
2022/06/20 04:13:07;;;;;;;4.95;4.53;;;;;;;19.58;54.37;99495.72;5016670;28;20037;-85
2022/06/20 04:15:44;;;;;;;5.07;4.57;;;;;;;19.54;54.22;99494.59;5014804;28;20073;-85
2022/06/20 04:18:36;;;;;;;4.50;4.10;;;;;;;19.65;54.31;99494.53;5014744;28;20138;-86
2022/06/20 04:21:29;;;;;;;5.43;4.65;;;;;;;19.69;54.34;99497.56;5013485;28;20026;-85
2022/06/20 04:24:12;;;;;;;5.28;4.28;;;;;;;19.53;54.00;99464.31;5013453;28;20029;-85
2022/06/20 04:26:49;;;;;;;6.97;4.30;;;;;;;19.71;54.53;99497.31;5013514;28;20033;-85
2022/06/20 04:29:18;;;;;;;9.35;4.38;;;;;;;19.71;54.40;99494.66;5014717;28;20025;-85
2022/06/20 04:32:08;;;;;;;4.70;4.22;;;;;;;19.67;54.10;99476.38;5013354;28;20482;-85
2022/06/20 04:34:41;;;;;;;6.65;4.93;;;;;;;19.90;54.14;99501.44;5013259;28;20040;-85
2022/06/20 04:37:25;;;;;;;6.57;5.13;;;;;;;19.94;54.27;99495.34;5013183;28;20099;-85
2022/06/20 04:40:13;;;;;;;8.93;4.68;;;;;;;20.02;54.52;99496.03;5013085;28;20406;-85
2022/06/20 04:42:57;;;;;;;9.93;5.20;;;;;;;19.80;54.29;99448.47;5008824;28;20542;-85
2022/06/20 04:45:28;;;;;;;9.15;4.90;;;;;;;20.19;54.16;99496.91;5014342;28;20034;-86
2022/06/20 04:48:12;;;;;;;9.70;5.13;;;;;;;20.27;54.54;99494.63;5012719;28;20483;-85
2022/06/20 04:51:00;;;;;;;5.78;4.22;;;;;;;20.00;54.08;99437.31;5013857;28;20037;-85
2022/06/20 04:53:39;;;;;;;7.32;4.70;;;;;;;20.51;53.90;99489.97;5013304;28;20042;-86
2022/06/20 04:56:06;;;;;;;5.82;3.75;;;;;;;20.62;53.50;99501.66;5012503;28;20025;-85
2022/06/20 04:58:53;;;;;;;5.57;3.85;;;;;;;20.29;52.98;99417.44;5014254;28;20053;-85
2022/06/20 05:01:19;;;;;;;6.45;3.30;;;;;;;20.79;52.64;99485.53;5029282;28;20474;-85
2022/06/20 05:03:49;;;;;;;5.78;3.88;;;;;;;20.09;52.71;99406.41;5013779;28;20057;-85
2022/06/20 05:06:23;;;;;;;5.13;3.60;;;;;;;20.49;52.71;99421.53;5013787;28;20034;-86
2022/06/20 05:08:54;;;;;;;5.47;3.65;;;;;;;20.99;52.70;99493.91;5013805;28;20468;-85
2022/06/20 05:11:25;;;;;;;7.07;3.78;;;;;;;20.99;52.73;99485.88;5013662;28;20487;-86
2022/06/20 05:13:53;;;;;;;;;;;;;;;20.83;52.98;99490.22;5014396;28;20108;-85
2022/06/20 05:16:30;;;;;;;4.10;3.38;;;;;;;20.95;52.63;99490.09;5014064;28;19932;-86
2022/06/20 05:19:00;;;;;;;4.05;3.42;;;;;;;20.70;52.44;99455.63;5013699;28;20488;-85
2022/06/20 05:21:31;;;;;;;3.90;3.60;;;;;;;21.03;52.33;99489.69;5012083;28;20470;-86
2022/06/20 05:24:16;;;;;;;4.60;3.83;;;;;;;20.23;52.41;99354.06;5012278;28;20097;-86
2022/06/20 05:26:44;;;;;;;6.00;3.58;;;;;;;20.87;52.26;99445.72;5013254;28;20022;-86
2022/06/20 05:29:17;;;;;;;6.10;4.40;;;;;;;20.60;52.54;99412.56;5013661;28;20045;-85
2022/06/20 05:31:46;;;;;;;7.63;4.00;;;;;;;20.72;51.98;99421.31;5028743;28;20052;-85
2022/06/20 05:34:29;;;;;;;5.90;3.35;;;;;;;21.29;51.57;99488.19;5012918;28;20030;-85
2022/06/20 05:37:03;;;;;;;5.75;4.28;;;;;;;21.34;51.30;99480.19;5013040;28;20026;-85
2022/06/20 05:39:37;;;;;;;5.78;4.30;;;;;;;21.43;51.24;99481.38;5013016;28;20021;-86
2022/06/20 05:42:04;;;;;;;7.40;3.70;;;;;;;21.48;50.73;99481.44;5010844;28;20095;-85
2022/06/20 05:44:29;;;;;;;5.15;3.33;;;;;;;21.18;50.18;99435.38;5013353;28;20018;-86
2022/06/20 05:47:06;;;;;;;5.07;3.92;;;;;;;21.56;50.22;99483.72;5017823;28;20022;-86
2022/06/20 05:49:52;;;;;;;4.20;3.20;;;;;;;20.76;49.86;99358.06;5015267;28;20068;-85
2022/06/20 05:52:22;;;;;;;4.45;3.28;;;;;;;21.59;49.44;99468.97;5027981;28;20025;-85
2022/06/20 05:55:15;;;;;;;4.63;2.92;;;;;;;21.79;49.00;99484.50;5014783;28;20434;-85
2022/06/20 05:57:45;;;;;;;3.85;2.65;;;;;;;21.04;48.45;99359.78;5032464;28;20055;-85
2022/06/20 06:00:17;;;;;;;3.03;2.72;;;;;;;21.38;48.70;99408.78;5029526;28;20107;-85
2022/06/20 06:02:50;;;;;;;4.03;3.00;;;;;;;21.97;48.32;99491.41;5032638;28;20108;-86
2022/06/20 06:05:38;;;;;;;8.23;3.70;;;;;;;21.53;48.37;99413.50;5012004;28;20123;-85
2022/06/20 06:08:28;;;;;;;6.32;4.10;;;;;;;22.07;48.40;99473.50;5011129;28;20026;-85
2022/06/20 06:11:00;;;;;;;3.97;3.20;;;;;;;22.13;48.18;99480.56;5012479;28;20034;-84
2022/06/20 06:13:36;;;;;;;;;;;;;;;22.01;48.49;99473.69;5014280;28;20026;-86
2022/06/20 06:18:57;;;;;;;12.52;3.65;;;;;;;21.74;48.31;99431.50;5031623;28;20636;-86
2022/06/20 06:21:24;;;;;;;5.15;3.25;;;;;;;22.07;47.92;99441.25;5029392;28;20524;-85
2022/06/20 06:23:49;;;;;;;4.22;3.17;;;;;;;22.04;47.52;99439.06;5030618;28;20025;-85
2022/06/20 06:26:17;;;;;;;3.78;3.15;;;;;;;22.37;47.36;99467.63;5031820;28;20090;-85
2022/06/20 06:28:44;;;;;;;4.28;3.70;;;;;;;22.12;47.28;99433.22;5029857;28;20029;-84
2022/06/20 06:31:20;;;;;;;5.10;4.18;;;;;;;22.27;47.41;99437.09;5031359;28;20775;-85
2022/06/20 06:33:50;;;;;;;7.35;5.20;;;;;;;22.47;47.30;99451.56;5028987;28;20395;-85
2022/06/20 06:36:26;;;;;;;3.60;3.30;;;;;;;22.65;47.25;99452.22;5023914;28;20033;-85
2022/06/20 06:39:10;;;;;;;4.75;3.42;;;;;;;22.72;47.10;99448.22;5015590;28;20071;-86
2022/06/20 06:41:41;;;;;;;7.45;4.97;;;;;;;22.80;47.34;99446.94;5014318;28;20029;-85
2022/06/20 06:44:18;;;;;;;5.38;3.90;;;;;;;22.71;47.47;99421.56;5011260;28;20068;-85
2022/06/20 06:46:48;;;;;;;4.57;3.25;;;;;;;22.46;47.29;99368.41;5020234;28;20079;-85
2022/06/20 06:49:32;;;;;;;4.95;3.45;;;;;;;23.01;47.50;99437.91;5027416;28;20029;-85
2022/06/20 06:52:19;;;;;;;5.43;4.00;;;;;;;22.76;47.70;99408.94;5023096;28;20030;-85
2022/06/20 06:54:54;;;;;;;5.30;3.58;;;;;;;23.05;47.29;99432.84;5012072;28;20033;-85
2022/06/20 06:57:29;;;;;;;4.25;3.85;;;;;;;23.11;47.18;99435.28;5024243;28;20018;-85
2022/06/20 07:00:03;;;;;;;5.03;3.25;;;;;;;23.15;46.92;99432.88;5011039;28;20037;-85
2022/06/20 07:02:31;;;;;;;4.70;3.08;;;;;;;22.46;46.75;99319.97;5021598;28;20458;-85
2022/06/20 07:05:08;;;;;;;4.78;3.35;;;;;;;23.26;46.75;99433.75;5011585;28;20058;-84
2022/06/20 07:07:58;;;;;;;8.02;4.93;;;;;;;23.25;46.58;99419.47;5018033;28;20035;-84
2022/06/20 07:10:47;;;;;;;7.35;6.63;;;;;;;23.34;47.09;99419.75;5024995;28;20029;-84
2022/06/20 07:13:38;;;;;;;6.35;5.75;;;;;;;23.46;46.96;99421.16;5029420;28;20034;-84
2022/06/20 07:16:10;;;;;;;;;;;;;;;23.38;46.95;99423.53;5009848;28;20030;-85
2022/06/20 07:18:43;;;;;;;6.30;5.68;;;;;;;23.17;46.34;99355.31;5012065;28;19913;-83
2022/06/20 07:21:17;;;;;;;5.55;3.35;;;;;;;23.38;45.73;99378.56;5008901;28;20029;-84
2022/06/20 07:23:48;;;;;;;8.40;5.53;;;;;;;23.71;45.89;99419.63;5009867;28;20033;-84
2022/06/20 07:26:17;;;;;;;5.82;4.15;;;;;;;22.92;45.29;99294.09;5016204;28;20068;-85
2022/06/20 07:28:48;;;;;;;4.85;4.45;;;;;;;23.85;45.61;99415.34;5020326;28;20124;-84
2022/06/20 07:31:55;;;;;;;3.13;2.88;;;;;;;23.39;44.50;99347.84;5019430;28;20112;-84
2022/06/20 07:34:41;;;;;;;3.05;2.83;;;;;;;23.86;44.80;99398.09;5011642;28;20057;-85
2022/06/20 07:37:15;;;;;;;6.18;3.17;;;;;;;23.57;44.61;99332.25;5010901;28;20056;-85
2022/06/20 07:39:43;;;;;;;5.00;4.25;;;;;;;24.24;44.72;99407.53;5009890;28;20042;-85
2022/06/20 07:42:21;;;;;;;5.40;3.17;;;;;;;24.25;44.18;99403.75;5009982;28;20030;-85
2022/06/20 07:44:56;;;;;;;4.43;2.78;;;;;;;23.87;44.45;99328.78;5009600;28;20026;-84
2022/06/20 07:47:35;;;;;;;5.20;3.28;;;;;;;24.01;44.37;99343.34;5011119;28;20031;-85
2022/06/20 07:50:11;;;;;;;8.55;7.57;;;;;;;24.13;44.78;99337.69;5009556;28;20040;-85
2022/06/20 07:52:44;;;;;;;5.07;3.05;;;;;;;24.22;43.13;99336.03;5016230;28;20021;-85
2022/06/20 07:55:19;;;;;;;5.88;3.40;;;;;;;24.68;43.39;99397.00;5030956;28;20622;-83
2022/06/20 07:57:51;;;;;;;5.82;3.97;;;;;;;24.33;43.60;99349.28;5026897;28;20033;-84
2022/06/20 08:00:23;;;;;;;6.28;4.03;;;;;;;24.82;43.72;99399.94;5012635;28;20033;-84
2022/06/20 08:02:57;;;;;;;5.93;3.88;;;;;;;24.90;42.89;99387.75;5010498;28;20407;-84
2022/06/20 08:05:34;;;;;;;6.35;3.72;;;;;;;23.91;42.98;99225.53;5028088;28;20111;-86
2022/06/20 08:08:00;;;;;;;3.83;3.53;;;;;;;25.08;42.60;99387.16;5022656;28;20045;-84
2022/06/20 08:10:36;;;;;;;5.45;4.95;;;;;;;24.96;42.07;99356.94;5009056;28;20038;-84
2022/06/20 08:13:36;;;;;;;4.10;3.72;;;;;;;25.25;42.37;99378.72;5011758;28;20045;-84
2022/06/20 08:16:14;;;;;;;5.38;4.13;;;;;;;25.26;42.45;99389.25;5010182;28;20438;-84
2022/06/20 08:18:40;;;;;;;4.38;3.60;;;;;;;24.75;42.32;99296.81;5025915;28;20025;-84
2022/06/20 08:21:21;;;;;;;3.97;3.67;;;;;;;25.43;41.61;99380.00;5011000;28;20040;-86
2022/06/20 08:23:53;;;;;;;4.65;3.90;;;;;;;25.51;40.74;99374.00;5014189;28;20026;-84
2022/06/20 08:26:24;;;;;;;5.57;3.33;;;;;;;25.31;40.98;99337.91;5021048;28;20100;-85
2022/06/20 08:28:58;;;;;;;4.15;2.90;;;;;;;25.54;40.60;99346.41;5023631;28;20028;-85
2022/06/20 08:31:40;;;;;;;4.88;3.15;;;;;;;25.82;38.55;99361.91;5033905;28;20029;-84
2022/06/20 08:34:25;;;;;;;4.38;3.15;;;;;;;25.88;38.41;99357.25;5014649;28;20404;-85
2022/06/20 08:36:59;;;;;;;2.95;2.30;;;;;;;25.57;38.94;99294.47;5022786;28;20077;-84
2022/06/20 08:39:37;;;;;;;3.30;3.00;;;;;;;26.13;38.86;99372.50;5019643;28;20068;-85
2022/06/20 08:42:08;;;;;;;4.75;2.80;;;;;;;26.24;38.82;99358.59;5031540;28;20022;-85
2022/06/20 08:45:01;;;;;;;5.68;3.10;;;;;;;26.42;37.47;99343.56;5021047;28;20068;-85
2022/06/20 08:47:50;;;;;;;4.43;4.03;;;;;;;26.11;37.79;99277.28;5020938;28;20458;-85
2022/06/20 08:50:27;;;;;;;4.38;2.40;;;;;;;26.75;37.01;99349.16;5020235;28;20095;-84
2022/06/20 08:53:17;;;;;;;3.80;3.20;;;;;;;26.78;37.36;99348.59;5014665;28;20026;-85
2022/06/20 08:56:00;;;;;;;2.83;2.60;;;;;;;26.81;37.12;99346.13;5026621;28;20521;-85
2022/06/20 08:58:36;;;;;;;3.45;3.05;;;;;;;26.80;37.17;99327.44;5017127;28;20025;-82
2022/06/20 09:01:20;;;;;;;5.22;2.20;;;;;;;27.09;36.29;99357.97;5025936;28;20029;-84
2022/06/20 09:03:48;;;;;;;6.15;3.10;;;;;;;27.26;36.22;99348.53;5027965;28;20415;-83
2022/06/20 09:06:25;;;;;;;5.90;5.32;;;;;;;27.38;35.57;99347.00;5023631;28;20065;-83
2022/06/20 09:09:00;;;;;;;6.15;5.50;;;;;;;27.55;35.80;99349.22;5025855;28;20040;-84
2022/06/20 09:11:28;;;;;;;5.40;2.78;;;;;;;27.71;34.76;99350.63;5016578;28;20038;-84
2022/06/20 09:14:03;;;;;;;5.22;4.60;;;;;;;27.83;34.15;99344.75;5011953;28;20360;-84
2022/06/20 09:16:45;;;;;;;3.58;3.28;;;;;;;27.68;33.92;99294.25;5011814;28;20026;-84
2022/06/20 09:19:37;;;;;;;3.95;3.17;;;;;;;27.49;33.62;99239.19;5013209;28;20080;-82
2022/06/20 09:22:24;;;;;;;3.58;2.72;;;;;;;28.13;34.14;99338.81;5022471;28;20036;-85
2022/06/20 09:25:25;;;;;;;4.25;2.60;;;;;;;27.52;33.29;99282.03;5024201;28;20423;-84
2022/06/20 09:27:59;;;;;;;5.20;2.05;;;;;;;27.65;34.28;99338.25;5008521;28;20056;-84
2022/06/20 09:30:40;;;;;;;5.78;4.18;;;;;;;27.75;34.11;99334.56;5011688;28;20120;-84
2022/06/20 09:33:21;;;;;;;6.53;2.90;;;;;;;27.99;33.62;99329.03;5025522;28;20068;-85
2022/06/20 09:36:21;;;;;;;5.28;4.70;;;;;;;28.22;33.79;99290.06;5013478;28;20025;-84
2022/06/20 09:39:02;;;;;;;3.25;2.95;;;;;;;28.90;32.64;99324.63;4992330;28;20422;-82
2022/06/20 09:41:48;;;;;;;7.07;2.97;;;;;;;29.31;31.85;99334.63;5017002;28;20025;-83
2022/06/20 09:44:13;;;;;;;5.20;3.03;;;;;;;29.65;31.08;99332.22;5017931;28;20337;-83
2022/06/20 09:46:50;;;;;;;3.42;1.77;;;;;;;29.72;28.82;99301.84;5026506;28;20029;-83
2022/06/20 09:49:30;;;;;;;2.97;2.10;;;;;;;30.06;29.91;99325.81;5020633;28;20026;-83
2022/06/20 09:52:08;;;;;;;4.00;3.30;;;;;;;30.17;29.53;99299.94;5011440;28;20099;-83
2022/06/20 09:54:52;;;;;;;6.00;3.60;;;;;;;30.23;29.62;99323.19;5010675;28;20049;-83
2022/06/20 09:57:51;;;;;;;5.78;5.28;;;;;;;29.69;30.39;99325.06;5043707;28;20029;-83
2022/06/20 10:00:22;;;;;;;4.45;3.90;;;;;;;29.24;30.74;99307.06;5024415;28;20056;-83
2022/06/20 10:03:13;;;;;;;6.72;4.45;;;;;;;29.34;30.10;99295.94;5036026;28;20053;-84
2022/06/20 10:05:56;;;;;;;6.85;3.75;;;;;;;29.32;29.41;99220.09;5031639;28;20124;-85
2022/06/20 10:08:37;;;;;;;5.43;4.18;;;;;;;30.36;29.47;99310.59;5032056;28;20453;-84
2022/06/20 10:11:22;;;;;;;4.05;2.90;;;;;;;30.57;28.95;99284.41;5030321;28;20025;-84
2022/06/20 10:14:10;;;;;;;3.97;3.67;;;;;;;31.23;26.52;99304.31;5036279;28;20128;-84
2022/06/20 10:16:57;;;;;;;7.38;5.85;;;;;;;30.93;27.34;99277.94;5041876;28;20053;-83
2022/06/20 10:19:36;;;;;;;5.15;3.75;;;;;;;31.34;27.35;99306.72;5010552;28;20467;-83
2022/06/20 10:22:18;;;;;;;7.43;6.72;;;;;;;31.62;27.19;99305.25;5010666;28;20022;-84
2022/06/20 10:24:58;;;;;;;4.20;3.80;;;;;;;31.81;27.18;99285.84;5013291;28;20026;-83
2022/06/20 10:27:46;;;;;;;6.25;5.68;;;;;;;32.14;27.17;99300.53;5018836;28;20026;-83
2022/06/20 10:30:20;;;;;;;5.35;4.28;;;;;;;31.77;25.71;99211.16;5031477;28;20512;-83
2022/06/20 10:33:06;;;;;;;7.15;5.97;;;;;;;31.68;26.82;99202.97;5018597;28;20026;-84
2022/06/20 10:35:45;;;;;;;4.30;3.90;;;;;;;32.24;25.83;99296.69;5019821;28;20064;-84
2022/06/20 10:38:19;;;;;;;5.32;3.72;;;;;;;32.33;26.41;99283.78;5018516;28;20037;-84
2022/06/20 10:40:52;;;;;;;5.18;4.07;;;;;;;32.42;26.13;99261.88;5020941;28;20018;-82
2022/06/20 10:43:43;;;;;;;5.80;5.28;;;;;;;32.51;26.17;99263.44;5031308;28;20022;-84
2022/06/20 10:46:11;;;;;;;7.40;4.00;;;;;;;32.82;26.27;99279.53;5009038;28;20526;-83
2022/06/20 10:49:05;;;;;;;4.38;3.22;;;;;;;32.88;25.95;99271.94;5029524;28;20025;-82
2022/06/20 10:51:49;;;;;;;4.25;2.80;;;;;;;32.93;25.21;99269.00;5039755;28;20041;-82
2022/06/20 10:54:14;;;;;;;2.95;2.65;;;;;;;33.06;25.47;99272.63;5013056;28;20561;-84
2022/06/20 10:56:54;;;;;;;5.90;4.10;;;;;;;33.32;25.06;99270.50;5011311;28;20029;-82
2022/06/20 10:59:41;;;;;;;6.67;5.97;;;;;;;33.35;24.92;99261.63;5009971;28;20065;-84
2022/06/20 11:02:34;;;;;;;10.32;9.32;;;;;;;33.15;24.65;99210.41;5010235;28;20259;-83
2022/06/20 11:05:02;;;;;;;10.35;8.48;;;;;;;33.68;24.55;99267.13;5012340;28;20044;-83
2022/06/20 11:07:33;;;;;;;9.18;8.27;;;;;;;33.44;23.60;99226.78;5019005;28;20106;-83
2022/06/20 11:10:09;;;;;;;6.45;5.85;;;;;;;33.35;24.12;99201.41;5016512;28;20026;-83
2022/06/20 11:12:49;;;;;;;6.35;5.63;;;;;;;33.89;24.27;99261.59;5016416;28;20024;-83
2022/06/20 11:15:38;;;;;;;5.93;5.25;;;;;;;33.42;24.55;99189.91;5015601;28;20400;-83
2022/06/20 11:18:07;;;;;;;5.15;4.65;;;;;;;34.04;24.32;99257.41;5009069;28;20033;-83
2022/06/20 11:20:55;;;;;;;6.47;5.20;;;;;;;33.50;23.83;99215.63;5009492;28;20034;-83
2022/06/20 11:23:28;;;;;;;4.47;4.07;;;;;;;33.25;23.66;99177.16;5016557;28;20424;-83
2022/06/20 11:26:05;;;;;;;5.50;4.32;;;;;;;33.98;23.96;99242.31;5030583;28;20029;-83
2022/06/20 11:28:39;;;;;;;6.28;4.32;;;;;;;33.65;24.49;99248.63;5029513;28;20037;-83
2022/06/20 11:31:33;;;;;;;4.40;4.00;;;;;;;32.66;24.99;99169.09;5013842;28;20029;-83
2022/06/20 11:34:09;;;;;;;7.88;5.20;;;;;;;33.03;25.51;99235.78;5024519;28;20108;-84
2022/06/20 11:37:09;;;;;;;4.43;3.90;;;;;;;33.01;24.85;99232.59;5015403;28;20417;-83
2022/06/20 11:39:59;;;;;;;5.15;4.50;;;;;;;33.34;25.20;99238.13;4999591;28;20042;-82
2022/06/20 11:42:46;;;;;;;4.75;4.18;;;;;;;33.72;24.83;99228.91;5019999;28;20032;-82
2022/06/20 11:45:48;;;;;;;4.95;4.55;;;;;;;34.14;23.78;99234.22;5012245;28;20037;-83
2022/06/20 11:48:22;;;;;;;4.30;3.78;;;;;;;34.32;24.04;99222.75;5009956;28;20025;-83
2022/06/20 11:51:15;;;;;;;4.05;3.65;;;;;;;34.54;22.60;99201.47;5009104;28;20076;-82
2022/06/20 11:53:59;;;;;;;5.25;4.00;;;;;;;34.91;23.82;99221.41;5012504;28;20483;-83
2022/06/20 11:56:50;;;;;;;7.13;6.43;;;;;;;34.78;23.18;99206.13;5011777;28;20416;-82
2022/06/20 11:59:37;;;;;;;3.88;3.50;;;;;;;34.79;23.09;99221.41;5015599;28;20037;-84
2022/06/20 12:02:22;;;;;;;3.83;2.92;;;;;;;34.41;23.03;99148.63;5013235;28;20022;-84
2022/06/20 12:04:58;;;;;;;5.03;3.78;;;;;;;35.05;22.43;99213.63;5014288;28;20046;-83
2022/06/20 12:07:33;;;;;;;3.88;3.42;;;;;;;35.04;22.59;99190.88;5012324;28;20038;-83
2022/06/20 12:10:21;;;;;;;4.20;3.70;;;;;;;34.68;22.89;99086.72;5014904;28;20079;-82
2022/06/20 12:13:09;;;;;;;4.85;3.15;;;;;;;35.48;22.74;99210.13;5030037;28;20051;-83
2022/06/20 12:15:59;;;;;;;3.70;3.40;;;;;;;35.46;22.68;99208.91;5020141;28;20025;-84
2022/06/20 12:18:34;;;;;;;4.53;3.55;;;;;;;35.51;22.42;99200.41;5017839;28;20476;-84
2022/06/20 12:24:05;;;;;;;5.90;2.63;;;;;;;35.44;21.52;99153.53;5029340;28;20091;-84
2022/06/20 12:26:35;;;;;;;3.38;2.90;;;;;;;35.63;21.63;99192.09;5027655;28;20507;-84
2022/06/20 12:29:06;;;;;;;4.10;3.15;;;;;;;34.57;22.17;99152.22;5017293;28;20026;-83
2022/06/20 12:31:39;;;;;;;4.38;3.10;;;;;;;33.77;22.88;99141.06;5019992;28;20028;-84